Weather observations for the past three days for
Mineola/Quitman, Wood County Airport
Metric (Imperial)
Date Time (cdt) Wind (kph) Vis. (km) Weather Sky Cond. Temperature (ºC) Relative Humidity Wind Chill (°C) Heat Index (°C) Pressure Precipitation (cm)
Air Dwpt 6 hour altimeter (cm) sea level (mb) 1 hr 3 hr 6 hr
Max. Min.
07 15:15 Vrbl 6 16.09 Partly Cloudy FEW260 SCT360 21.7 12 54% 76.2 0.0
07 14:55 Vrbl 7 16.09 A Few Clouds FEW280 21.1 12 56% 76.23 0.0
07 14:35 Vrbl 6 14.48 Partly Cloudy FEW280 SCT350 SCT380 21.2 11.7 55% 76.25 0.0
07 14:15 Calm 14.48 Partly Cloudy FEW250 SCT350 SCT370 21.1 11.7 55% 76.28 0.0
07 13:55 Vrbl 7 14.48 Partly Cloudy FEW260 SCT350 SCT370 20.7 11.4 55% 76.25 0.0
07 13:35 N 7 16.09 A Few Clouds FEW270 21.2 11.6 54% 76.28 0.0
07 13:15 Vrbl 7 16.09 A Few Clouds FEW280 20.3 11.5 57% 76.28 0.0
07 12:55 Vrbl 6 16.09 Partly Cloudy FEW280 SCT330 SCT350 SCT370 20.6 11.8 57% 76.3 0.0
07 12:35 N 7 14.48 Partly Cloudy FEW280 SCT340 SCT380 19.4 11.4 60% 76.33 0.0
07 12:15 N 13 14.48 A Few Clouds FEW310 20 11 56% 76.38 0.0
07 11:55 Vrbl 9 16.09 Fair CLR 19.4 11 58% 76.4 0.0
07 11:35 Vrbl 6 14.48 Fair CLR 19.1 11.2 60% 76.4 0.0
07 11:15 N 7 16.09 Fair CLR 18.4 11 62% 76.4 0.0
07 10:55 N 11 16.09 Fair CLR 18.4 10.9 62% 76.43 0.0
07 10:35 N 9 16.09 Fair CLR 17.3 10.6 65% 76.45 0.0
07 10:15 Vrbl 6 16.09 Fair CLR 16.9 10.3 65% 76.45 0.0
07 09:55 Vrbl 6 16.09 Fair CLR 16.1 10.4 69% 76.45 0.0
07 09:35 Vrbl 7 16.09 Fair CLR 15.6 10.1 70% 76.48 0.0
07 09:15 Vrbl 7 14.48 Fair CLR 15.7 10.4 71% 76.48 0.0
07 08:55 Vrbl 6 16.09 Fair CLR 14.6 10.6 77% 76.5 0.0
07 08:35 N 6 16.09 Fair CLR 13.8 10.7 82% 76.5 0.0
07 08:15 N 6 14.48 Fair CLR 13.2 10.9 86% 76.48 0.0
07 07:55 Calm 14.48 Fair CLR 12.5 11.1 91% 76.48 0.0
07 07:35 Calm 14.48 Fair CLR 11.8 10.8 94% 76.45 0.0
07 07:15 Calm 14.48 Fair CLR 11 10.5 97% 76.45 0.0
07 06:55 Calm 14.48 Fair CLR 10.6 10.3 98% 76.43 0.0
07 06:35 NW 6 14.48 Fair CLR 10.7 10.2 97% 76.38 0.0
07 06:15 Calm 16.09 A Few Clouds FEW290 10.7 10.4 98% 76.35 0.0
07 05:55 Calm 14.48 A Few Clouds FEW290 10.5 10.2 98% 76.33 0.0
07 05:35 N 7 14.48 A Few Clouds FEW280 10.7 10.4 98% 76.3 0.0
07 05:15 N 6 14.48 A Few Clouds FEW280 10.7 10.3 97% 76.3 0.0
07 04:55 N 6 16.09 Fair CLR 10.8 10.4 97% 76.3 0.0
07 04:35 Calm 16.09 Fair CLR 10.9 10.4 97% 76.28 0.0
07 04:15 N 6 16.09 Fair CLR 11.1 10.4 96% 76.28 0.0
07 03:55 N 6 16.09 Fair CLR 11.1 10.4 96% 76.28 0.0
07 03:35 N 6 16.09 Fair CLR 11 10.3 96% 76.25 0.0
07 03:15 Calm 16.09 Fair CLR 11.1 10.2 94% 76.23 0.0
07 02:55 Calm 16.09 A Few Clouds FEW290 11.5 10.2 92% 76.23 0.0
07 02:35 Calm 16.09 A Few Clouds FEW290 11.6 10.4 92% 76.23 0.0
07 02:15 Calm 16.09 A Few Clouds FEW031 12.1 10.4 89% 76.25 0.0
07 01:55 Calm 16.09 Mostly Cloudy BKN031 12.4 10.5 88% 76.25 0.0
07 01:35 Vrbl 6 16.09 Mostly Cloudy BKN031 12.6 10.7 88% 76.25 0.0
07 01:15 Vrbl 6 16.09 Overcast OVC030 12.8 11 89% 76.28 0.0
07 00:55 Calm 16.09 Overcast OVC030 12.9 11.3 90% 76.28 0.0
07 00:35 N 7 16.09 Overcast FEW012 OVC027 12.8 11.6 92% 76.28 0.0
07 00:15 Calm 16.09 Overcast BKN012 OVC026 12.9 11.6 92% 76.3 0.0
06 23:55 N 9 16.09 Overcast BKN013 OVC027 12.9 11.6 92% 76.3 0.0
06 23:35 Calm 16.09 Overcast SCT011 OVC025 12.8 11.6 92% 76.3 0.0
06 23:15 Calm 16.09 Overcast SCT011 BKN024 OVC031 12.9 11.3 90% 76.3 0.0
06 22:55 Vrbl 7 16.09 Overcast SCT014 BKN021 OVC031 12.9 11.1 89% 76.3 0.0
06 22:35 Vrbl 7 16.09 Overcast OVC013 13 10.9 87% 76.25 0.0
06 22:15 Vrbl 7 16.09 Overcast BKN014 OVC023 13.2 10.9 86% 76.28 0.0
06 21:55 Vrbl 9 16.09 Overcast SCT015 OVC023 13.2 11.1 87% 76.23 0.0
06 21:35 Vrbl 11 16.09 Overcast BKN013 OVC023 13.4 11.5 88% 76.2 0.0
06 21:15 Vrbl 9 16.09 Overcast OVC011 13.5 11.8 90% 76.17 0.0
06 20:55 Vrbl 9 16.09 Overcast OVC011 13.7 12 90% 76.12 0.0
06 20:35 N 13 16.09 Overcast OVC009 13.9 12.5 91% 76.07 0.0
06 20:15 Vrbl 7 16.09 Overcast BKN008 OVC013 14.2 13 93% 76.07 0.0
06 19:55 Vrbl 7 16.09 Overcast OVC010 14.5 13.2 92% 76.02 0.0
06 19:35 N 7 16.09 Overcast OVC011 14.8 13.3 91% 76.02 0.0
06 19:15 N 9 14.48 Overcast BKN010 OVC015 15 13.6 91% 76.02 0.0
06 18:55 N 19 14.48 Overcast OVC009 15.2 14.1 93% 76 0.0
06 18:35 N 7 11.27 Light Rain OVC009 15.4 14.4 94% 76 0.0
06 18:15 Vrbl 9 12.87 Overcast OVC010 15.6 14.2 91% 76 0.0
06 17:55 Vrbl 6 16.09 Overcast OVC010 15.7 14.1 90% 76 0.0
06 17:35 N 9 14.48 Overcast OVC009 15.6 14 90% 75.95 0.0
06 17:15 N 9 14.48 Overcast OVC008 15.5 13.9 90% 75.95 0.0
06 16:55 N 11 14.48 Overcast OVC008 15.4 14.1 92% 75.92 0.0
06 16:35 N 13 12.87 Overcast OVC008 15.2 14.1 93% 75.95 0.0
06 16:15 N 17 11.27 Overcast OVC009 15.7 14.1 90% 76 0.0
06 15:55 N 11 11.27 Overcast OVC010 15.8 14 89% 75.97 0.0
06 15:35 NW 9 8.05 Fog/Mist OVC010 16 13.9 87% 76 0.0
06 15:15 N 9 14.48 Overcast OVC011 15.8 13.7 87% 76 0.0
06 14:55 Vrbl 6 14.48 Overcast OVC011 15.7 13.7 88% 75.95 0.0
06 14:35 Vrbl 6 14.48 Overcast OVC011 15.6 13.3 86% 76 0.0
06 14:15 N 11 14.48 Overcast OVC010 15.7 13.4 86% 75.92 0.0
06 13:55 Calm 14.48 Overcast OVC010 15.5 13.4 87% 75.9 0.0
06 13:35 Vrbl 6 14.48 Overcast OVC010 14.8 13 89% 75.9 0.0
06 13:15 Vrbl 9 14.48 Overcast OVC010 14.8 12.7 87% 75.92 0.0
06 12:55 NE 7 16.09 Overcast OVC011 14.8 12.4 86% 76 0.0
06 12:35 Vrbl 9 14.48 Overcast OVC010 14.5 12.3 87% 76 0.0
06 12:15 N 17 16.09 Overcast OVC010 14.2 12.1 87% 76 0.0
06 11:55 N 7 14.48 Overcast BKN008 OVC015 13.5 12 91% 76.1 0.0
06 11:35 Vrbl 6 11.27 Light Rain OVC008 13.5 12.2 92% 76.07 0.0
06 11:15 N 17 14.48 Overcast OVC009 13.8 11.9 88% 76.12 0.0
06 10:55 N 15 14.48 Overcast OVC009 13.6 11.7 88% 76.12 0.0
06 10:35 N 13 14.48 Overcast OVC009 13.6 11.6 88% 76.02 0.0
06 10:15 N 9 14.48 Overcast OVC009 13.5 11.7 89% 76 0.0
06 09:55 N 13 14.48 Overcast OVC008 13.4 11.6 89% 76.02 0.0
06 09:35 N 13 12.87 Overcast OVC008 13.4 11.7 90% 75.97 0.0
06 09:15 N 13 14.48 Overcast OVC008 13.3 11.7 90% 75.95 0.0
06 08:55 N 17 11.27 Light Rain OVC009 13.2 11.9 92% 75.95 0.0
06 08:35 N 15 14.48 Overcast OVC009 13.2 11.6 90% 75.92 0.0
06 08:15 N 13 11.27 Light Rain OVC009 13.2 12 93% 75.92 0.0
06 07:55 N 15 14.48 Overcast BKN009 OVC013 13.3 12 92% 75.92 0.0
06 07:35 N 17 8.05 Fog/Mist OVC012 13.4 12.1 92% 75.9 0.0
06 07:15 NW 15 14.48 Overcast OVC011 14 12.1 88% 75.87 0.0
06 06:55 N 17 11.27 Overcast OVC012 14.3 12.1 87% 75.82 0.0
06 06:35 NW 13 16.09 Overcast OVC011 15 12.4 85% 75.79 0.0
06 06:15 N 9 16.09 Overcast OVC011 14.9 12.6 86% 75.77 0.0
06 05:55 NW 11 14.48 Overcast OVC011 15.1 12.8 86% 75.74 0.0
06 05:35 N 11 16.09 Overcast OVC011 15.6 12.8 84% 75.74 0.0
06 05:15 N 9 16.09 Overcast OVC012 15.7 12.9 84% 75.69 0.0
06 04:55 N 9 16.09 Overcast OVC012 15.8 13.2 85% 75.69 0.0
06 04:35 N 6 16.09 Overcast OVC012 15.8 13.3 85% 75.67 0.0
06 04:15 N 11 16.09 Overcast OVC013 15.9 13.4 85% 75.69 0.0
06 03:55 N 11 14.48 Overcast OVC014 16.4 13.4 83% 75.69 0.0
06 03:35 N 13 14.48 Overcast OVC014 17 14 83% 75.67 0.0
06 03:15 NW 13 16.09 Overcast OVC015 17.2 13.8 81% 75.67 0.0
06 02:55 N 15 16.09 Overcast OVC016 17.7 14.1 80% 75.67 0.0
06 02:35 NW 17 16.09 Overcast OVC017 18.2 14.5 79% 75.64 0.0
06 01:55 N 13 16.09 Overcast OVC018 18.9 15 78% 75.62 0.0
06 01:35 N 11 16.09 Overcast OVC018 19.5 15.4 77% 75.62 0.0
06 00:55 N 17 16.09 Overcast OVC018 20.8 16.7 78% 75.62 0.0
06 00:35 N 15 16.09 Overcast OVC018 22 18.2 79% 75.59 0.0
06 00:15 NW 19 G 28 14.48 Overcast BKN021 OVC026 24.4 21.3 83% 25 75.59 0.0
05 23:55 W 7 16.09 Mostly Cloudy BKN026 BKN033 25.2 22.5 85% 26 75.59 0.0
05 23:35 Calm 16.09 Overcast OVC027 24.9 22.4 86% 26 75.57 0.0
05 23:15 Calm 16.09 Mostly Cloudy BKN027 25.1 22.4 85% 26 75.54 0.0
05 22:55 SW 11 16.09 A Few Clouds FEW220 25.1 22.5 86% 26 75.51 0.0
05 22:35 S 7 14.48 Partly Cloudy SCT220 24.9 22.3 86% 26 75.49 0.0
05 22:15 Vrbl 7 14.48 A Few Clouds FEW220 25.3 22.3 84% 26 75.44 0.0
05 21:55 Calm 16.09 Fair CLR 25.5 22.3 83% 27 75.44 0.0
05 21:35 S 6 16.09 A Few Clouds FEW220 25.9 22.2 80% 27 75.44 0.0
05 21:15 Vrbl 9 16.09 Fair CLR 25.9 22.1 80% 27 75.41 0.0
05 20:55 S 9 16.09 Fair CLR 25.6 22 81% 27 75.39 0.0
05 20:35 S 7 16.09 Fair CLR 25.7 22 80% 27 75.41 0.0
05 20:15 S 6 16.09 Fair CLR 26.3 22.1 78% 28 75.39 0.0
05 19:55 Vrbl 7 14.48 Fair CLR 26.5 22.1 77% 28 75.39 0.0
05 19:35 S 9 14.48 Fair CLR 27.1 22 74% 29 75.39 0.0
05 19:15 SW 7 14.48 Fair CLR 27.6 21.9 71% 30 75.36 0.0
05 18:55 SW 11 14.48 Partly Cloudy SCT038 28 21.7 69% 30 75.36 0.0
05 18:35 S 13 14.48 Mostly Cloudy BKN036 28.4 21.5 66% 31 75.36 0.0
05 18:15 SW 13 14.48 Mostly Cloudy BKN034 BKN220 28.3 21.3 66% 31 75.36 0.0
05 17:55 S 17 16.09 Mostly Cloudy SCT034 BKN220 28.3 21.4 66% 31 75.34 0.0
05 17:35 S 15 16.09 Mostly Cloudy BKN034 28.1 21.3 67% 30 75.34 0.0
05 17:15 S 11 16.09 Partly Cloudy SCT034 28 21.4 67% 30 75.34 0.0
05 16:55 SW 19 G 28 16.09 A Few Clouds FEW032 28.2 21.1 65% 30 75.34 0.0
05 16:35 SW 20 16.09 A Few Clouds FEW035 28 21.3 67% 30 75.36 0.0
05 16:15 S 17 16.09 Partly Cloudy SCT032 28.4 21.4 66% 31 75.36 0.0
05 15:55 S 17 16.09 Partly Cloudy SCT032 28.6 21.4 65% 31 75.36 0.0
05 15:35 S 26 16.09 A Few Clouds FEW031 28.4 21.2 65% 31 75.39 0.0
05 15:15 S 24 G 37 16.09 Partly Cloudy SCT032 27.8 21 67% 30 75.39 0.0
05 14:55 S 19 G 31 16.09 Mostly Cloudy SCT029 SCT310 BKN380 27.8 21.1 67% 30 75.39 0.0
05 14:35 SW 19 16.09 Mostly Cloudy SCT029 BKN280 27.5 20.9 67% 29 75.41 0.0
05 14:15 SW 22 G 39 16.09 Partly Cloudy FEW028 SCT270 SCT300 27.4 21.1 69% 29 75.41 0.0
05 13:55 S 26 G 33 16.09 Mostly Cloudy BKN029 27 20.9 69% 29 75.44 0.0
05 13:35 SW 22 G 31 16.09 Mostly Cloudy BKN028 BKN033 26.7 20.6 69% 28 75.44 0.0
05 13:15 SW 20 G 37 16.09 Mostly Cloudy BKN029 BKN034 BKN340 26.8 20.5 68% 28 75.44 0.0
05 12:55 SW 20 G 35 16.09 Mostly Cloudy BKN027 26.7 20.6 69% 28 75.46 0.0
05 12:35 SW 24 G 41 16.09 Mostly Cloudy BKN024 BKN031 26.3 20.4 70% 28 75.46 0.0
05 12:15 S 30 G 41 16.09 Overcast OVC024 25.7 20.3 72% 27 75.46 0.0
05 11:55 SW 28 G 35 16.09 Overcast OVC022 24.9 20 74% 26 75.46 0.0
05 11:35 SW 20 G 43 16.09 Overcast BKN021 OVC027 24.2 19.9 77% 25 75.46 0.0
05 11:15 S 17 G 31 16.09 Overcast BKN020 OVC026 24 19.9 78% 24 75.46 0.0
05 10:55 SW 17 G 39 14.48 Overcast BKN020 OVC025 23.6 19.7 79% 75.49 0.0
05 10:35 SW 22 G 33 16.09 Overcast OVC022 23.8 19.6 77% 75.49 0.0
05 10:15 S 22 G 37 16.09 Overcast OVC020 24 19.8 77% 25 75.44 0.0
05 09:55 S 20 G 30 14.48 Overcast OVC020 23.2 19.6 80% 75.46 0.0
05 09:35 S 19 G 33 14.48 Overcast OVC019 22.6 19.5 83% 75.46 0.0
05 09:15 S 19 14.48 Overcast OVC018 22.3 19.4 84% 75.46 0.0
05 08:55 S 20 G 37 14.48 Overcast OVC018 22 19.4 85% 75.44 0.0
05 08:35 S 17 G 26 14.48 Overcast OVC019 21.6 19.4 87% 75.46 0.0
05 08:15 S 19 16.09 Overcast BKN014 OVC023 21.4 19.3 88% 75.44 0.0
05 07:55 S 19 G 30 16.09 Overcast OVC013 21.3 19.2 88% 75.44 0.0
05 07:35 S 17 G 30 14.48 Overcast OVC013 21.2 19.1 88% 75.44 0.0
05 07:15 S 9 16.09 Overcast OVC013 21 19 88% 75.44 0.0
05 06:55 S 15 14.48 Overcast OVC013 20.9 18.9 88% 75.41 0.0
05 06:35 S 11 16.09 Overcast OVC013 20.8 18.8 88% 75.41 0.0
05 06:15 S 17 16.09 Overcast OVC014 21 18.7 87% 75.44 0.0
05 05:55 SW 22 G 31 16.09 Overcast OVC015 21 18.4 85% 75.44 0.0
05 05:35 S 15 16.09 Overcast OVC016 21 18.3 85% 75.44 0.0
05 05:15 Vrbl 9 16.09 Overcast OVC017 21 18.2 84% 75.41 0.0
05 04:55 S 13 G 30 16.09 Overcast OVC018 21.1 18.1 83% 75.41 0.0
05 04:35 S 17 G 30 16.09 Overcast OVC018 21.2 18.2 83% 75.39 0.0
05 04:15 S 19 G 33 16.09 Overcast OVC018 21.3 18.2 83% 75.41 0.0
05 03:55 S 22 G 41 16.09 Overcast OVC018 21.3 18.3 83% 75.39 0.0
05 03:35 S 24 G 39 16.09 Overcast OVC019 21.2 18.2 83% 75.44 0.0
05 03:15 S 15 G 30 16.09 Mostly Cloudy BKN019 21 18 83% 75.44 0.0
05 02:55 S 15 16.09 Partly Cloudy FEW020 SCT200 20.6 17.8 84% 75.44 0.0
05 02:35 S 15 G 30 16.09 Mostly Cloudy BKN200 20.7 17.7 83% 75.46 0.0
05 02:15 S 17 16.09 A Few Clouds FEW200 21 17.8 82% 75.46 0.0
05 01:55 S 19 G 31 16.09 A Few Clouds FEW190 21.2 17.6 80% 75.49 0.0
05 01:35 S 19 G 31 16.09 Fair CLR 21.4 17.4 78% 75.51 0.0
05 01:15 S 13 G 30 16.09 Fair CLR 21.6 17.4 77% 75.51 0.0
05 00:55 S 15 16.09 Fair CLR 21.6 17.2 76% 75.51 0.0
05 00:35 S 13 16.09 Fair CLR 21.7 17 75% 75.54 0.0
05 00:15 S 11 16.09 Fair CLR 21.9 16.8 73% 75.54 0.0
04 23:55 S 13 16.09 Fair CLR 22.1 16.6 71% 75.54 0.0
04 23:35 S 11 16.09 Fair CLR 22.5 16.5 69% 75.57 0.0
04 23:15 S 13 G 26 16.09 Fair CLR 22.8 16.4 67% 75.54 0.0
04 22:55 S 15 16.09 Fair CLR 22.9 16.2 66% 75.57 0.0
04 22:35 S 13 16.09 Fair CLR 22.9 16.1 66% 75.57 0.0
04 22:15 S 13 16.09 Fair CLR 23 16 65% 75.57 0.0
04 21:55 S 11 16.09 Fair CLR 23 15.8 64% 75.57 0.0
04 21:35 S 11 16.09 A Few Clouds FEW220 23.1 15.6 63% 75.54 0.0
04 21:15 S 9 16.09 Fair CLR 23.4 15.4 61% 75.57 0.0
04 20:55 S 11 16.09 Fair CLR 23.5 15.4 61% 75.57 0.0
04 20:35 S 13 16.09 Fair CLR 23.8 15.3 59% 75.54 0.0
04 20:15 S 13 16.09 Fair CLR 23.9 15.2 58% 25 75.54 0.0
04 19:55 S 11 16.09 Fair CLR 24.3 15.1 57% 26 75.54 0.0
04 19:35 S 13 16.09 Fair CLR 24.7 15 55% 26 75.54 0.0
04 19:15 S 17 14.48 Fair CLR 24.9 14.7 53% 26 75.54 0.0
04 18:55 S 17 16.09 Fair CLR 25.1 14.6 52% 26 75.54 0.0
04 18:35 S 15 16.09 Fair CLR 25.8 14.7 50% 26 75.57 0.0
04 18:15 Vrbl 11 16.09 Fair CLR 26 14.8 50% 27 75.59 0.0
04 17:55 S 15 16.09 Fair CLR 26 14.4 49% 27 75.59 0.0
04 17:35 S 15 G 31 16.09 Fair CLR 26 14.3 49% 27 75.62 0.0
04 17:15 S 19 G 35 16.09 Fair CLR 25.9 13.8 47% 26 75.64 0.0
04 16:55 S 22 G 33 16.09 Fair CLR 26.5 13.8 46% 27 75.64 0.0
04 16:35 S 17 G 30 16.09 Fair CLR 26.3 13.3 45% 27 75.67 0.0
04 16:15 S 20 G 31 16.09 Fair CLR 26.2 13.1 44% 26 75.69 0.0
04 15:55 S 20 G 35 16.09 Fair CLR 26.4 12.7 43% 27 75.72 0.0
Date Time (cdt) Wind (kph) Vis. (km) Weather Sky Cond. Air Dwpt Max. Min. Relative Humidity Wind Chill (°C) Heat Index (°C) altimeter (cm) sea level (mb) 1 hr 3 hr 6 hr
6 hour
Temperature (ºC) Pressure Precipitation (cm)